createdAt,value
2019-01-20T00:00:28.920Z,24.1
2019-01-20T00:01:31.088Z,24.1
2019-01-20T00:02:33.574Z,24.1
2019-01-20T00:03:35.735Z,24.1
2019-01-20T00:04:38.169Z,24.1
2019-01-20T00:05:40.595Z,24.1
2019-01-20T00:06:43.020Z,24.1
2019-01-20T00:07:45.451Z,24.1
2019-01-20T00:08:47.616Z,24.1
2019-01-20T00:09:50.046Z,24.1
2019-01-20T00:10:52.214Z,24.1
2019-01-20T00:11:54.651Z,24.1
2019-01-20T00:12:56.820Z,24.2
2019-01-20T00:13:59.252Z,24.2
2019-01-20T00:15:01.476Z,24.2
2019-01-20T00:16:03.635Z,24.2
2019-01-20T00:17:05.782Z,24.2
2019-01-20T00:18:08.231Z,24.2
2019-01-20T00:19:10.656Z,24.2
2019-01-20T00:20:13.201Z,24.2
2019-01-20T00:21:15.493Z,24.2
2019-01-20T00:22:17.685Z,24.2
2019-01-20T00:23:19.825Z,24.2
2019-01-20T00:24:21.952Z,24.2
2019-01-20T00:25:24.386Z,24.2
2019-01-20T00:26:26.844Z,24.2
2019-01-20T00:27:29.276Z,24.2
2019-01-20T00:28:31.165Z,24.2
2019-01-20T00:29:33.606Z,24.2
2019-01-20T00:30:35.491Z,24.2
2019-01-20T00:31:37.634Z,24.2
2019-01-20T00:32:40.071Z,24.2
2019-01-20T00:33:42.232Z,24.3
2019-01-20T00:34:44.663Z,24.3
2019-01-20T00:35:46.830Z,24.3
2019-01-20T00:36:48.992Z,24.3
2019-01-20T00:37:51.140Z,24.3
2019-01-20T00:38:53.279Z,24.3
2019-01-20T00:39:55.708Z,24.3
2019-01-20T00:40:57.582Z,24.3
2019-01-20T00:41:59.747Z,24.3
2019-01-20T00:43:02.193Z,24.3
2019-01-20T00:44:04.084Z,24.3
2019-01-20T00:45:06.512Z,24.3
2019-01-20T00:46:08.656Z,24.3
2019-01-20T00:47:11.092Z,24.4
2019-01-20T00:48:12.994Z,24.4
2019-01-20T00:49:15.424Z,24.4
2019-01-20T00:50:17.594Z,24.4
2019-01-20T00:51:19.752Z,24.4
2019-01-20T00:52:21.881Z,24.4
2019-01-20T00:53:24.065Z,24.4
2019-01-20T00:54:26.506Z,24.4
2019-01-20T00:55:28.654Z,24.4
2019-01-20T00:56:31.074Z,24.4
2019-01-20T00:57:32.940Z,24.5
2019-01-20T00:58:35.366Z,24.5
2019-01-20T00:59:37.265Z,24.5
2019-01-20T01:00:39.694Z,24.5
2019-01-20T01:01:41.846Z,24.5
2019-01-20T01:02:44.275Z,24.5
2019-01-20T01:03:46.714Z,24.5
2019-01-20T01:04:49.140Z,24.5
2019-01-20T01:05:51.022Z,24.5
2019-01-20T01:06:53.166Z,24.5
2019-01-20T01:07:55.303Z,24.6
2019-01-20T01:08:57.746Z,24.6
2019-01-20T01:10:00.180Z,24.6
2019-01-20T01:11:02.330Z,24.6
2019-01-20T01:12:04.476Z,24.6
2019-01-20T01:13:06.641Z,24.6
2019-01-20T01:14:09.085Z,24.6
2019-01-20T01:15:11.513Z,24.6
2019-01-20T01:16:13.401Z,24.6
2019-01-20T01:17:15.826Z,24.6
2019-01-20T01:18:18.257Z,24.6
2019-01-20T01:19:20.424Z,24.6
2019-01-20T01:20:22.862Z,24.6
2019-01-20T01:21:24.745Z,24.6
2019-01-20T01:22:26.904Z,24.6
2019-01-20T01:23:29.343Z,24.6
2019-01-20T01:24:31.771Z,24.7
2019-01-20T01:25:33.931Z,24.7
2019-01-20T01:26:37.883Z,24.7
2019-01-20T01:27:40.302Z,24.7
2019-01-20T01:28:42.462Z,24.7
2019-01-20T01:29:44.879Z,24.7
2019-01-20T01:30:47.305Z,24.7
2019-01-20T01:31:49.451Z,24.7
2019-01-20T01:32:51.608Z,24.7
2019-01-20T01:33:53.802Z,24.7
2019-01-20T01:34:55.945Z,24.7
2019-01-20T01:35:58.091Z,24.7
2019-01-20T01:37:00.530Z,24.8
2019-01-20T01:38:02.403Z,24.8
2019-01-20T01:39:04.857Z,24.8
2019-01-20T01:40:07.281Z,24.8
2019-01-20T01:41:09.433Z,24.8
2019-01-20T01:42:11.864Z,24.8
2019-01-20T01:43:14.292Z,24.8
2019-01-20T01:44:16.723Z,24.8
2019-01-20T01:45:19.182Z,24.8
2019-01-20T01:46:21.596Z,24.8
2019-01-20T01:47:24.018Z,24.8
2019-01-20T01:48:26.434Z,24.9
2019-01-20T01:49:28.584Z,24.9
2019-01-20T01:50:31.011Z,24.9
2019-01-20T01:51:33.140Z,24.9
2019-01-20T01:52:35.563Z,24.9
2019-01-20T01:53:38.005Z,24.9
2019-01-20T01:54:40.424Z,24.9
2019-01-20T01:55:42.847Z,24.9
2019-01-20T01:56:44.994Z,24.9
2019-01-20T01:57:47.159Z,24.9
2019-01-20T01:58:49.295Z,24.9
2019-01-20T01:59:51.730Z,24.9
2019-01-20T02:00:54.151Z,24.9
2019-01-20T02:01:56.591Z,24.9
2019-01-20T02:02:59.011Z,24.9
2019-01-20T02:04:01.441Z,25
2019-01-20T02:05:03.305Z,25
2019-01-20T02:06:05.736Z,25
2019-01-20T02:07:08.153Z,25
2019-01-20T02:08:10.305Z,25
2019-01-20T02:09:12.731Z,25
2019-01-20T02:10:14.626Z,25
2019-01-20T02:11:16.775Z,25
2019-01-20T02:12:18.894Z,25
2019-01-20T02:13:21.329Z,25
2019-01-20T02:14:23.755Z,25
2019-01-20T02:15:26.188Z,25
2019-01-20T02:16:28.340Z,25
2019-01-20T02:17:30.775Z,25
2019-01-20T02:18:32.941Z,25
2019-01-20T02:19:35.093Z,25
2019-01-20T02:20:37.515Z,25
2019-01-20T02:21:39.944Z,25
2019-01-20T02:22:41.801Z,25
2019-01-20T02:23:43.935Z,25
2019-01-20T02:24:46.364Z,25.1
2019-01-20T02:25:48.519Z,25.1
2019-01-20T02:26:50.684Z,25.1
2019-01-20T02:27:52.565Z,25.1
2019-01-20T02:28:54.989Z,25.1
2019-01-20T02:29:56.871Z,25.1
2019-01-20T02:30:59.303Z,25.1
2019-01-20T02:32:01.739Z,25
2019-01-20T02:33:03.897Z,25
2019-01-20T02:34:06.063Z,25
2019-01-20T02:35:08.237Z,25
2019-01-20T02:36:10.708Z,25
2019-01-20T02:37:13.161Z,25
2019-01-20T02:38:15.065Z,25
2019-01-20T02:39:17.497Z,25
2019-01-20T02:40:19.914Z,25
2019-01-20T02:41:22.342Z,25
2019-01-20T02:42:24.512Z,25
2019-01-20T02:43:26.927Z,25
2019-01-20T02:44:29.072Z,25
2019-01-20T02:45:31.497Z,25
2019-01-20T02:46:33.382Z,25.1
2019-01-20T02:47:35.801Z,25.1
2019-01-20T02:48:38.225Z,25.1
2019-01-20T02:49:40.648Z,25.1
2019-01-20T02:50:43.072Z,25.1
2019-01-20T02:51:45.543Z,25.1
2019-01-20T02:52:47.706Z,25.1
2019-01-20T02:53:50.131Z,25.1
2019-01-20T02:54:52.283Z,25.2
2019-01-20T02:55:54.705Z,25.2
2019-01-20T02:56:56.833Z,25.2
2019-01-20T02:57:59.274Z,25.2
2019-01-20T02:59:03.483Z,25.2
2019-01-20T03:00:05.915Z,25.2
2019-01-20T03:01:08.079Z,25.2
2019-01-20T03:02:10.237Z,25.2
2019-01-20T03:03:12.668Z,25.1
2019-01-20T03:04:15.099Z,25.1
2019-01-20T03:05:17.519Z,25.1
2019-01-20T03:06:20.133Z,25.1
2019-01-20T03:07:22.275Z,25.1
2019-01-20T03:08:24.699Z,25.1
2019-01-20T03:09:27.130Z,25.1
2019-01-20T03:10:28.987Z,25.1
2019-01-20T03:11:30.871Z,25.1
2019-01-20T03:12:32.756Z,25.1
2019-01-20T03:13:35.175Z,25.1
2019-01-20T03:14:37.067Z,25.1
2019-01-20T03:15:39.224Z,25.2
2019-01-20T03:16:41.649Z,25.2
2019-01-20T03:17:43.803Z,25.2
2019-01-20T03:18:45.952Z,25.2
2019-01-20T03:19:48.105Z,25.2
2019-01-20T03:20:50.255Z,25.2
2019-01-20T03:21:52.394Z,25.2
2019-01-20T03:22:54.278Z,25.2
2019-01-20T03:23:56.163Z,25.2
2019-01-20T03:24:58.595Z,25.2
2019-01-20T03:26:01.019Z,25.2
2019-01-20T03:27:03.196Z,25.2
2019-01-20T03:28:05.353Z,25.2
2019-01-20T03:29:07.820Z,25.1
2019-01-20T03:30:09.986Z,25.1
2019-01-20T03:31:12.414Z,25.1
2019-01-20T03:32:14.834Z,25.1
2019-01-20T03:33:17.266Z,25.1
2019-01-20T03:34:19.686Z,25.1
2019-01-20T03:35:22.116Z,25.1
2019-01-20T03:36:24.275Z,25.1
2019-01-20T03:37:26.435Z,25.2
2019-01-20T03:38:28.582Z,25.2
2019-01-20T03:39:31.024Z,25.2
2019-01-20T03:40:33.183Z,25.2
2019-01-20T03:41:35.615Z,25.2
2019-01-20T03:42:37.505Z,25.2
2019-01-20T03:43:39.997Z,25.2
2019-01-20T03:44:42.415Z,25.2
2019-01-20T03:45:44.855Z,25.2
2019-01-20T03:46:48.963Z,25.2
2019-01-20T03:47:51.118Z,25.2
2019-01-20T03:48:53.541Z,25.2
2019-01-20T03:49:55.975Z,25.1
2019-01-20T03:50:58.411Z,25.1
2019-01-20T03:52:00.555Z,25.1
2019-01-20T03:53:02.728Z,25.1
2019-01-20T03:54:05.155Z,25.1
2019-01-20T03:55:07.315Z,25.1
2019-01-20T03:56:08.663Z,25.1
2019-01-20T03:57:11.094Z,25.1
2019-01-20T03:58:13.262Z,25.1
2019-01-20T03:59:15.675Z,25.2
2019-01-20T04:00:17.545Z,25.2
2019-01-20T04:01:19.694Z,25.2
2019-01-20T04:02:22.126Z,25.2
2019-01-20T04:03:24.285Z,25.2
2019-01-20T04:04:26.211Z,25.2
2019-01-20T04:05:28.690Z,25.2
2019-01-20T04:06:30.834Z,25.1
2019-01-20T04:07:33.267Z,25.1
2019-01-20T04:08:35.414Z,25.1
2019-01-20T04:09:37.562Z,25.1
2019-01-20T04:10:39.970Z,25.1
2019-01-20T04:11:42.394Z,25.1
2019-01-20T04:12:44.829Z,25
2019-01-20T04:13:46.984Z,25
2019-01-20T04:14:49.413Z,25
2019-01-20T04:15:51.839Z,25
2019-01-20T04:16:54.271Z,25
2019-01-20T04:17:56.412Z,25
2019-01-20T04:18:58.557Z,25
2019-01-20T04:20:00.996Z,25
2019-01-20T04:21:03.430Z,25
2019-01-20T04:22:05.592Z,25
2019-01-20T04:23:08.011Z,25
2019-01-20T04:24:10.183Z,25
2019-01-20T04:25:12.647Z,25
2019-01-20T04:26:15.093Z,25
2019-01-20T04:27:17.245Z,24.9
2019-01-20T04:28:19.373Z,24.9
2019-01-20T04:29:21.510Z,24.9
2019-01-20T04:30:23.928Z,24.9
2019-01-20T04:31:26.428Z,24.9
2019-01-20T04:32:28.291Z,24.9
2019-01-20T04:33:30.452Z,24.9
2019-01-20T04:34:32.317Z,24.9
2019-01-20T04:35:34.441Z,24.9
2019-01-20T04:36:36.867Z,24.9
2019-01-20T04:37:39.295Z,24.9
2019-01-20T04:38:41.493Z,24.9
2019-01-20T04:39:43.920Z,24.9
2019-01-20T04:40:46.077Z,24.9
2019-01-20T04:41:48.225Z,24.9
2019-01-20T04:42:50.735Z,24.9
2019-01-20T04:43:53.144Z,24.9
2019-01-20T04:44:55.309Z,24.9
2019-01-20T04:45:57.749Z,24.9
2019-01-20T04:47:00.173Z,24.8
2019-01-20T04:48:02.350Z,24.8
2019-01-20T04:49:04.493Z,24.8
2019-01-20T04:50:06.647Z,24.8
2019-01-20T04:51:09.074Z,24.8
2019-01-20T04:52:11.499Z,24.8
2019-01-20T04:53:13.385Z,24.8
2019-01-20T04:54:15.547Z,24.8
2019-01-20T04:55:17.676Z,24.8
2019-01-20T04:56:20.103Z,24.8
2019-01-20T04:57:21.992Z,24.8
2019-01-20T04:58:25.097Z,24.8
2019-01-20T04:59:27.535Z,24.8
2019-01-20T05:00:29.954Z,24.8
2019-01-20T05:01:32.107Z,24.8
2019-01-20T05:02:34.526Z,24.8
2019-01-20T05:03:36.708Z,24.8
2019-01-20T05:04:39.175Z,24.8
2019-01-20T05:05:41.600Z,24.8
2019-01-20T05:06:44.024Z,24.8
2019-01-20T05:07:46.181Z,24.8
2019-01-20T05:08:48.346Z,24.8
2019-01-20T05:09:50.493Z,24.8
2019-01-20T05:10:52.921Z,24.8
2019-01-20T05:11:55.341Z,24.8
2019-01-20T05:12:57.793Z,24.8
2019-01-20T05:14:00.203Z,24.8
2019-01-20T05:15:02.369Z,24.8
2019-01-20T05:16:04.825Z,24.8
2019-01-20T05:17:07.258Z,24.8
2019-01-20T05:18:09.675Z,24.8
2019-01-20T05:19:12.111Z,24.8
2019-01-20T05:20:14.263Z,24.8
2019-01-20T05:21:16.700Z,24.8
2019-01-20T05:22:19.111Z,24.8
2019-01-20T05:23:21.540Z,24.8
2019-01-20T05:24:23.689Z,24.8
2019-01-20T05:25:25.842Z,24.8
2019-01-20T05:26:28.262Z,24.8
2019-01-20T05:27:30.415Z,24.8
2019-01-20T05:28:32.852Z,24.8
2019-01-20T05:29:35.275Z,24.8
2019-01-20T05:30:37.442Z,24.8
2019-01-20T05:31:39.603Z,24.8
2019-01-20T05:32:42.036Z,24.8
2019-01-20T05:33:44.475Z,24.8
2019-01-20T05:34:46.904Z,24.8
2019-01-20T05:35:48.781Z,24.8
2019-01-20T05:36:51.203Z,24.8
2019-01-20T05:37:53.627Z,24.8
2019-01-20T05:38:56.047Z,24.8
2019-01-20T05:39:58.475Z,24.8
2019-01-20T05:41:00.355Z,24.8
2019-01-20T05:42:02.780Z,24.8
2019-01-20T05:43:04.937Z,24.8
2019-01-20T05:44:07.366Z,24.8
2019-01-20T05:45:09.507Z,24.8
2019-01-20T05:46:11.926Z,24.8
2019-01-20T05:47:14.364Z,24.8
2019-01-20T05:48:16.796Z,24.8
2019-01-20T05:49:19.217Z,24.8
2019-01-20T05:50:21.346Z,24.7
2019-01-20T05:51:23.775Z,24.7
2019-01-20T05:52:26.205Z,24.7
2019-01-20T05:53:28.642Z,24.7
2019-01-20T05:54:30.786Z,24.7
2019-01-20T05:55:32.942Z,24.7
2019-01-20T05:56:35.364Z,24.7
2019-01-20T05:57:37.789Z,24.8
2019-01-20T05:58:39.934Z,24.7
2019-01-20T05:59:41.835Z,24.7
2019-01-20T06:00:43.992Z,24.7
2019-01-20T06:01:46.410Z,24.7
2019-01-20T06:02:48.548Z,24.7
2019-01-20T06:03:50.149Z,24.7
2019-01-20T06:04:52.574Z,24.7
2019-01-20T06:05:55.005Z,24.7
2019-01-20T06:06:57.151Z,24.7
2019-01-20T06:07:59.576Z,24.7
2019-01-20T06:09:01.755Z,24.7
2019-01-20T06:10:03.896Z,24.7
2019-01-20T06:11:06.041Z,24.7
2019-01-20T06:12:08.471Z,24.7
2019-01-20T06:13:10.896Z,24.7
2019-01-20T06:14:13.322Z,24.7
2019-01-20T06:15:15.765Z,24.7
2019-01-20T06:16:17.984Z,24.7
2019-01-20T06:17:20.425Z,24.7
2019-01-20T06:18:22.580Z,24.7
2019-01-20T06:19:24.763Z,24.7
2019-01-20T06:20:26.915Z,24.7
2019-01-20T06:21:29.075Z,24.7
2019-01-20T06:22:32.625Z,24.7
2019-01-20T06:23:35.050Z,24.7
2019-01-20T06:24:37.476Z,24.7
2019-01-20T06:25:39.373Z,24.7
2019-01-20T06:26:41.808Z,24.7
2019-01-20T06:27:43.995Z,24.7
2019-01-20T06:28:46.124Z,24.7
2019-01-20T06:29:48.567Z,24.7
2019-01-20T06:30:50.715Z,24.7
2019-01-20T06:31:53.144Z,24.7
2019-01-20T06:32:55.005Z,24.7
2019-01-20T06:33:57.166Z,24.7
2019-01-20T06:34:59.322Z,24.7
2019-01-20T06:36:01.746Z,24.7
2019-01-20T06:37:03.905Z,24.7
2019-01-20T06:38:06.056Z,24.7
2019-01-20T06:39:07.986Z,24.7
2019-01-20T06:40:10.476Z,24.7
2019-01-20T06:41:12.908Z,24.7
2019-01-20T06:42:15.337Z,24.7
2019-01-20T06:43:16.942Z,24.7
2019-01-20T06:44:19.374Z,24.7
2019-01-20T06:45:21.534Z,24.7
2019-01-20T06:46:23.968Z,24.7
2019-01-20T06:47:26.390Z,24.7
2019-01-20T06:48:28.540Z,24.7
2019-01-20T06:49:30.436Z,24.7
2019-01-20T06:50:32.309Z,24.7
2019-01-20T06:51:34.231Z,24.7
2019-01-20T06:52:36.665Z,24.7
2019-01-20T06:53:39.086Z,24.7
2019-01-20T06:54:41.552Z,24.7
2019-01-20T06:55:43.976Z,24.7
2019-01-20T06:56:46.408Z,24.7
2019-01-20T06:57:48.841Z,24.7
2019-01-20T06:58:51.272Z,24.7
2019-01-20T06:59:53.704Z,24.7
2019-01-20T07:00:56.126Z,24.7
2019-01-20T07:01:58.554Z,24.7
2019-01-20T07:03:00.757Z,24.7
2019-01-20T07:04:03.160Z,24.7
2019-01-20T07:05:05.326Z,24.7
2019-01-20T07:06:07.756Z,24.7
2019-01-20T07:07:09.910Z,24.7
2019-01-20T07:08:12.345Z,24.7
2019-01-20T07:09:14.234Z,24.7
2019-01-20T07:10:16.840Z,24.7
2019-01-20T07:11:19.276Z,24.6
2019-01-20T07:12:21.718Z,24.6
2019-01-20T07:13:24.146Z,24.6
2019-01-20T07:14:26.615Z,24.6
2019-01-20T07:15:28.550Z,24.7
2019-01-20T07:16:30.462Z,24.6
2019-01-20T07:17:32.630Z,24.6
2019-01-20T07:18:34.517Z,24.6
2019-01-20T07:19:36.943Z,24.6
2019-01-20T07:20:38.820Z,24.6
2019-01-20T07:21:40.992Z,24.6
2019-01-20T07:22:43.156Z,24.6
2019-01-20T07:23:45.284Z,24.6
2019-01-20T07:24:47.728Z,24.6
2019-01-20T07:25:50.143Z,24.6
2019-01-20T07:26:52.573Z,24.6
2019-01-20T07:27:55.000Z,24.6
2019-01-20T07:28:56.872Z,24.6
2019-01-20T07:29:59.495Z,24.6
2019-01-20T07:31:01.961Z,24.6
2019-01-20T07:32:04.125Z,24.6
2019-01-20T07:33:06.557Z,24.6
2019-01-20T07:34:08.984Z,24.6
2019-01-20T07:35:11.132Z,24.6
2019-01-20T07:36:13.287Z,24.6
2019-01-20T07:37:15.732Z,24.6
2019-01-20T07:38:18.213Z,24.6
2019-01-20T07:39:20.652Z,24.6
2019-01-20T07:40:23.366Z,24.6
2019-01-20T07:41:25.796Z,24.6
2019-01-20T07:42:28.221Z,24.6
2019-01-20T07:43:30.662Z,24.6
2019-01-20T07:44:33.102Z,24.6
2019-01-20T07:45:35.542Z,24.6
2019-01-20T07:46:37.962Z,24.6
2019-01-20T07:47:39.825Z,24.6
2019-01-20T07:48:42.272Z,24.6
2019-01-20T07:49:44.456Z,24.6
2019-01-20T07:50:48.272Z,24.6
2019-01-20T07:51:50.426Z,24.6
2019-01-20T07:52:52.865Z,24.6
2019-01-20T07:53:55.044Z,24.6
2019-01-20T07:54:57.456Z,24.6
2019-01-20T07:55:59.637Z,24.6
2019-01-20T07:57:02.062Z,24.6
2019-01-20T07:58:04.488Z,24.6
2019-01-20T07:59:06.642Z,24.6
2019-01-20T08:00:08.811Z,24.6
2019-01-20T08:01:11.234Z,24.6
2019-01-20T08:02:13.412Z,24.6
2019-01-20T08:03:15.840Z,24.6
2019-01-20T08:04:18.290Z,24.6
2019-01-20T08:05:20.754Z,24.6
2019-01-20T08:06:23.182Z,24.5
2019-01-20T08:07:25.344Z,24.5
2019-01-20T08:08:27.507Z,24.5
2019-01-20T08:09:29.654Z,24.5
2019-01-20T08:10:32.074Z,24.6
2019-01-20T08:11:34.504Z,24.5
2019-01-20T08:12:36.715Z,24.6
2019-01-20T08:13:39.185Z,24.5
2019-01-20T08:14:41.625Z,24.6
2019-01-20T08:15:44.058Z,24.5
2019-01-20T08:16:46.496Z,24.6
2019-01-20T08:17:48.939Z,24.5
2019-01-20T08:18:51.408Z,24.5
2019-01-20T08:19:53.538Z,24.6
2019-01-20T08:20:55.703Z,24.5
2019-01-20T08:21:58.162Z,24.5
2019-01-20T08:23:00.612Z,24.6
2019-01-20T08:24:04.179Z,24.6
2019-01-20T08:25:06.608Z,24.6
2019-01-20T08:26:09.049Z,24.6
2019-01-20T08:27:11.188Z,24.6
2019-01-20T08:28:13.657Z,24.6
2019-01-20T08:29:15.816Z,24.6
2019-01-20T08:30:18.264Z,24.6
2019-01-20T08:31:19.855Z,24.6
2019-01-20T08:32:22.316Z,24.6
2019-01-20T08:33:24.758Z,24.6
2019-01-20T08:34:26.914Z,24.6
2019-01-20T08:35:29.122Z,24.6
2019-01-20T08:36:31.551Z,24.6
2019-01-20T08:37:35.365Z,24.6
2019-01-20T08:38:37.525Z,24.6
2019-01-20T08:39:40.065Z,24.6
2019-01-20T08:40:41.964Z,24.6
2019-01-20T08:41:44.133Z,24.6
2019-01-20T08:43:01.218Z,24.6
2019-01-20T08:44:03.373Z,24.6
2019-01-20T08:45:05.814Z,24.6
2019-01-20T08:46:08.274Z,24.6
2019-01-20T08:47:10.718Z,24.6
2019-01-20T08:48:13.154Z,24.6
2019-01-20T08:49:15.316Z,24.6
2019-01-20T08:50:17.204Z,24.6
2019-01-20T08:51:19.448Z,24.6
2019-01-20T08:52:21.882Z,24.6
2019-01-20T08:53:24.314Z,24.5
2019-01-20T08:54:26.766Z,24.5
2019-01-20T08:55:28.965Z,24.6
2019-01-20T08:56:31.145Z,24.5
2019-01-20T08:57:33.574Z,24.6
2019-01-20T08:58:35.750Z,24.5
2019-01-20T08:59:38.205Z,24.6
2019-01-20T09:00:41.748Z,24.6
2019-01-20T09:01:43.928Z,24.5
2019-01-20T09:02:46.104Z,24.5
2019-01-20T09:03:48.273Z,24.6
2019-01-20T09:04:50.707Z,24.5
2019-01-20T09:05:52.852Z,24.5
2019-01-20T09:06:55.329Z,24.5
2019-01-20T09:07:57.764Z,24.5
2019-01-20T09:08:59.915Z,24.5
2019-01-20T09:10:01.804Z,24.5
2019-01-20T09:11:03.985Z,24.5
2019-01-20T09:12:06.425Z,24.5
2019-01-20T09:13:08.595Z,24.5
2019-01-20T09:14:11.051Z,24.5
2019-01-20T09:15:13.482Z,24.5
2019-01-20T09:16:15.917Z,24.5
2019-01-20T09:17:18.340Z,24.5
2019-01-20T09:18:20.773Z,24.5
2019-01-20T09:19:23.103Z,24.5
2019-01-20T09:20:25.264Z,24.5
2019-01-20T09:21:27.683Z,24.5
2019-01-20T09:22:29.819Z,24.5
2019-01-20T09:23:31.959Z,24.5
2019-01-20T09:24:34.102Z,24.5
2019-01-20T09:25:36.264Z,24.5
2019-01-20T09:26:38.403Z,24.5
2019-01-20T09:27:40.264Z,24.5
2019-01-20T09:28:42.425Z,24.5
2019-01-20T09:29:44.851Z,24.6
2019-01-20T09:30:46.789Z,24.5
2019-01-20T09:31:48.664Z,24.5
2019-01-20T09:32:51.101Z,24.6
2019-01-20T09:33:53.239Z,24.5
2019-01-20T09:34:55.386Z,24.6
2019-01-20T09:35:57.809Z,24.6
2019-01-20T09:37:00.248Z,24.6
2019-01-20T09:38:02.382Z,24.6
2019-01-20T09:39:04.814Z,24.6
2019-01-20T09:40:06.977Z,24.6
2019-01-20T09:41:09.404Z,24.6
2019-01-20T09:42:11.832Z,24.5
2019-01-20T09:43:13.982Z,24.6
2019-01-20T09:44:16.421Z,24.5
2019-01-20T09:45:18.854Z,24.6
2019-01-20T09:46:21.276Z,24.6
2019-01-20T09:47:23.710Z,24.6
2019-01-20T09:48:26.143Z,24.6
2019-01-20T09:49:28.577Z,24.6
2019-01-20T09:50:30.784Z,24.6
2019-01-20T09:51:32.955Z,24.6
2019-01-20T09:52:35.113Z,24.5
2019-01-20T09:53:37.546Z,24.6
2019-01-20T09:54:39.695Z,24.5
2019-01-20T09:55:41.834Z,24.5
2019-01-20T09:56:44.273Z,24.6
2019-01-20T09:57:46.170Z,24.6
2019-01-20T09:58:48.335Z,24.6
2019-01-20T09:59:50.778Z,24.6
2019-01-20T10:00:53.236Z,24.6
2019-01-20T10:01:54.853Z,24.6
2019-01-20T10:02:57.303Z,24.6
2019-01-20T10:03:59.445Z,24.6
2019-01-20T10:05:01.883Z,24.5
2019-01-20T10:06:04.316Z,24.5
2019-01-20T10:07:06.742Z,24.6
2019-01-20T10:08:08.898Z,24.5
2019-01-20T10:09:11.056Z,24.6
2019-01-20T10:10:13.214Z,24.6
2019-01-20T10:11:15.672Z,24.5
2019-01-20T10:12:18.114Z,24.5
2019-01-20T10:13:20.558Z,24.5
2019-01-20T10:14:22.970Z,24.6
2019-01-20T10:15:25.424Z,24.6
2019-01-20T10:16:27.856Z,24.5
2019-01-20T10:17:30.296Z,24.5
2019-01-20T10:18:32.449Z,24.5
2019-01-20T10:19:34.584Z,24.6
2019-01-20T10:20:36.752Z,24.5
2019-01-20T10:21:39.184Z,24.5
2019-01-20T10:22:41.369Z,24.6
2019-01-20T10:23:43.802Z,24.5
2019-01-20T10:24:47.763Z,24.6
2019-01-20T10:25:49.961Z,24.6
2019-01-20T10:26:52.127Z,24.6
2019-01-20T10:27:54.552Z,24.6
2019-01-20T10:28:56.975Z,24.6
2019-01-20T10:29:59.138Z,24.6
2019-01-20T10:31:01.634Z,24.6
2019-01-20T10:32:03.595Z,24.6
2019-01-20T10:33:05.481Z,24.6
2019-01-20T10:34:07.915Z,24.6
2019-01-20T10:35:10.364Z,24.6
2019-01-20T10:36:12.270Z,24.6
2019-01-20T10:37:14.432Z,24.6
2019-01-20T10:38:16.598Z,24.6
2019-01-20T10:39:19.037Z,24.6
2019-01-20T10:40:21.482Z,24.6
2019-01-20T10:41:23.935Z,24.6
2019-01-20T10:42:26.377Z,24.6
2019-01-20T10:43:28.813Z,24.6
2019-01-20T10:44:31.000Z,24.6
2019-01-20T10:45:32.916Z,24.6
2019-01-20T10:46:35.371Z,24.6
2019-01-20T10:47:37.835Z,24.6
2019-01-20T10:48:39.706Z,24.6
2019-01-20T10:49:41.864Z,24.6
2019-01-20T10:50:44.302Z,24.6
2019-01-20T10:51:46.481Z,24.6
2019-01-20T10:52:48.644Z,24.6
2019-01-20T10:54:55.822Z,24.6
2019-01-20T10:55:58.259Z,24.6
2019-01-20T10:57:00.690Z,24.6
2019-01-20T10:58:03.129Z,24.6
2019-01-20T10:59:06.790Z,24.6
2019-01-20T11:00:09.226Z,24.6
2019-01-20T11:01:11.659Z,24.6
2019-01-20T11:02:14.105Z,24.6
2019-01-20T11:03:16.534Z,24.5
2019-01-20T11:04:18.961Z,24.5
2019-01-20T11:06:25.814Z,24.6
2019-01-20T11:07:27.994Z,24.5
2019-01-20T11:08:30.436Z,24.6
2019-01-20T11:09:32.863Z,24.5
2019-01-20T11:10:35.300Z,24.5
2019-01-20T11:11:37.734Z,24.5
2019-01-20T11:12:41.565Z,24.5
2019-01-20T11:13:43.715Z,24.5
2019-01-20T11:14:46.155Z,24.5
2019-01-20T11:15:48.585Z,24.5
2019-01-20T11:16:50.543Z,24.5
2019-01-20T11:17:53.980Z,24.5
2019-01-20T11:18:56.149Z,24.5
2019-01-20T11:19:58.320Z,24.5
2019-01-20T11:21:00.782Z,24.5
2019-01-20T11:22:03.225Z,24.5
2019-01-20T11:23:05.436Z,24.5
2019-01-20T11:24:07.311Z,24.5
2019-01-20T11:25:09.735Z,24.5
2019-01-20T11:26:11.901Z,24.5
2019-01-20T11:27:14.352Z,24.5
2019-01-20T11:28:16.797Z,24.5
2019-01-20T11:29:18.945Z,24.5
2019-01-20T11:30:21.376Z,24.5
2019-01-20T11:31:23.808Z,24.5
2019-01-20T11:32:25.963Z,24.5
2019-01-20T11:33:28.404Z,24.5
2019-01-20T11:34:30.857Z,24.5
2019-01-20T11:35:33.035Z,24.5
2019-01-20T11:36:34.897Z,24.5
2019-01-20T11:37:37.337Z,24.5
2019-01-20T11:38:39.227Z,24.5
2019-01-20T11:39:41.393Z,24.5
2019-01-20T11:40:43.549Z,24.5
2019-01-20T11:41:45.724Z,24.5
2019-01-20T11:42:48.170Z,24.5
2019-01-20T11:43:50.605Z,24.5
2019-01-20T11:44:53.031Z,24.5
2019-01-20T11:45:55.457Z,24.5
2019-01-20T11:46:57.883Z,24.5
2019-01-20T11:48:00.300Z,24.5
2019-01-20T11:49:02.724Z,24.5
2019-01-20T11:50:05.162Z,24.5
2019-01-20T11:51:06.765Z,24.5
2019-01-20T11:52:09.190Z,24.5
2019-01-20T11:53:11.367Z,24.5
2019-01-20T11:54:13.525Z,24.5
2019-01-20T11:55:15.666Z,24.5
2019-01-20T11:56:17.850Z,24.5
2019-01-20T11:57:20.288Z,24.5
2019-01-20T11:58:22.726Z,24.5
2019-01-20T11:59:25.164Z,24.5
2019-01-20T12:00:27.577Z,24.5
2019-01-20T12:01:29.753Z,24.5
2019-01-20T12:02:31.657Z,24.5
2019-01-20T12:03:33.813Z,24.5
2019-01-20T12:04:35.988Z,24.5
2019-01-20T12:05:38.423Z,24.5
2019-01-20T12:06:40.861Z,24.5
2019-01-20T12:07:43.301Z,24.5
2019-01-20T12:08:45.756Z,24.5
2019-01-20T12:09:47.925Z,24.5
2019-01-20T12:10:50.110Z,24.5
2019-01-20T12:11:52.306Z,24.5
2019-01-20T12:12:54.733Z,24.5
2019-01-20T12:13:57.162Z,24.5
2019-01-20T12:14:59.302Z,24.5
2019-01-20T12:16:01.186Z,24.5
2019-01-20T12:17:03.350Z,24.5
2019-01-20T12:18:05.775Z,24.5
2019-01-20T12:19:08.206Z,24.5
2019-01-20T12:20:10.373Z,24.5
2019-01-20T12:21:12.592Z,24.5
2019-01-20T12:22:14.761Z,24.5
2019-01-20T12:23:16.922Z,24.5
2019-01-20T12:24:20.512Z,24.5
2019-01-20T12:25:22.962Z,24.5
2019-01-20T12:26:25.396Z,24.5
2019-01-20T12:27:27.821Z,24.5
2019-01-20T12:28:30.243Z,24.5
2019-01-20T12:29:32.413Z,24.5
2019-01-20T12:30:34.575Z,24.5
2019-01-20T12:31:37.008Z,24.5
2019-01-20T12:32:39.195Z,24.5
2019-01-20T12:33:41.637Z,24.5
2019-01-20T12:34:44.097Z,24.5
2019-01-20T12:35:46.525Z,24.5
2019-01-20T12:36:48.400Z,24.5
2019-01-20T12:37:50.860Z,24.5
2019-01-20T12:38:53.293Z,24.5
2019-01-20T12:39:55.458Z,24.5
2019-01-20T12:40:57.054Z,24.5
2019-01-20T12:41:58.767Z,24.5
2019-01-20T12:43:01.402Z,24.5
2019-01-20T12:44:03.581Z,24.5
2019-01-20T12:45:05.748Z,24.5
2019-01-20T12:46:07.903Z,24.5
2019-01-20T12:47:10.338Z,24.5
2019-01-20T12:48:12.798Z,24.5
2019-01-20T12:49:14.950Z,24.5
2019-01-20T12:50:17.395Z,24.5
2019-01-20T12:51:19.844Z,24.5
2019-01-20T12:52:22.287Z,24.5
2019-01-20T12:53:24.735Z,24.5
2019-01-20T12:54:26.941Z,24.5
2019-01-20T12:55:29.398Z,24.5
2019-01-20T12:56:31.540Z,24.5
2019-01-20T12:57:33.692Z,24.5
2019-01-20T12:58:35.840Z,24.5
2019-01-20T12:59:38.038Z,24.5
2019-01-20T13:00:40.492Z,24.5
2019-01-20T13:01:42.964Z,24.5
2019-01-20T13:02:45.471Z,24.5
2019-01-20T13:03:47.962Z,24.5
2019-01-20T13:04:49.864Z,24.5
2019-01-20T13:05:52.314Z,24.5
2019-01-20T13:06:54.917Z,24.5
2019-01-20T13:07:57.095Z,24.5
2019-01-20T13:08:59.536Z,24.5
2019-01-20T13:10:01.436Z,24.5
2019-01-20T13:11:03.900Z,24.5
2019-01-20T13:12:05.793Z,24.5
2019-01-20T13:13:07.994Z,24.5
2019-01-20T13:14:10.138Z,24.5
2019-01-20T13:15:12.584Z,24.5
2019-01-20T13:16:14.478Z,24.5
2019-01-20T13:17:16.374Z,24.5
2019-01-20T13:18:18.827Z,24.5
2019-01-20T13:20:28.504Z,24.5
2019-01-20T13:21:30.689Z,24.5
2019-01-20T13:22:33.158Z,24.5
2019-01-20T13:23:35.336Z,24.5
2019-01-20T13:24:37.221Z,24.5
2019-01-20T13:25:39.678Z,24.5
2019-01-20T13:26:42.155Z,24.5
2019-01-20T13:27:44.318Z,24.5
2019-01-20T13:28:46.481Z,24.5
2019-01-20T13:29:48.667Z,24.5
2019-01-20T13:30:51.106Z,24.5
2019-01-20T13:31:53.266Z,24.5
2019-01-20T13:32:55.697Z,24.5
2019-01-20T13:33:58.139Z,24.5
2019-01-20T13:35:00.577Z,24.4
2019-01-20T13:37:08.066Z,24.5
2019-01-20T13:38:10.230Z,24.5
2019-01-20T13:39:12.675Z,24.5
2019-01-20T13:40:14.839Z,24.4
2019-01-20T13:41:17.014Z,24.4
2019-01-20T13:42:19.457Z,24.5
2019-01-20T13:43:21.614Z,24.4
2019-01-20T13:44:23.773Z,24.4
2019-01-20T13:45:26.239Z,24.4
2019-01-20T13:46:28.412Z,24.4
2019-01-20T13:47:30.554Z,24.5
2019-01-20T13:48:32.992Z,24.5
2019-01-20T13:49:35.423Z,24.5
2019-01-20T13:50:37.859Z,24.5
2019-01-20T13:51:40.021Z,24.6
2019-01-20T13:52:42.154Z,24.6
2019-01-20T13:53:44.060Z,24.6
2019-01-20T13:54:46.225Z,24.7
2019-01-20T13:55:48.655Z,24.7
2019-01-20T13:56:51.112Z,24.8